sensor_id;sensor_type;location;lat;lon;timestamp;P1;durP1;ratioP1;P2;durP2;ratioP2
2338;SDS011;1180;51.438;6.978;2023-11-21T00:01:01;9.37;;;6.27;;
2338;SDS011;1180;51.438;6.978;2023-11-21T00:03:29;11.40;;;6.87;;
2338;SDS011;1180;51.438;6.978;2023-11-21T00:05:55;8.63;;;6.40;;
2338;SDS011;1180;51.438;6.978;2023-11-21T00:08:21;8.13;;;6.83;;
2338;SDS011;1180;51.438;6.978;2023-11-21T00:10:47;10.87;;;6.70;;
2338;SDS011;1180;51.438;6.978;2023-11-21T00:13:13;9.03;;;6.37;;
2338;SDS011;1180;51.438;6.978;2023-11-21T00:15:39;7.00;;;5.40;;
2338;SDS011;1180;51.438;6.978;2023-11-21T00:18:05;8.97;;;6.50;;
2338;SDS011;1180;51.438;6.978;2023-11-21T00:20:31;10.60;;;6.47;;
2338;SDS011;1180;51.438;6.978;2023-11-21T00:22:57;11.80;;;6.50;;
2338;SDS011;1180;51.438;6.978;2023-11-21T00:25:22;17.40;;;6.93;;
2338;SDS011;1180;51.438;6.978;2023-11-21T00:27:50;6.90;;;5.90;;
2338;SDS011;1180;51.438;6.978;2023-11-21T00:30:15;6.80;;;5.30;;
2338;SDS011;1180;51.438;6.978;2023-11-21T00:32:41;11.57;;;6.87;;
2338;SDS011;1180;51.438;6.978;2023-11-21T00:35:07;9.53;;;6.63;;
2338;SDS011;1180;51.438;6.978;2023-11-21T00:37:33;9.50;;;7.00;;
2338;SDS011;1180;51.438;6.978;2023-11-21T00:39:59;12.00;;;7.23;;
2338;SDS011;1180;51.438;6.978;2023-11-21T00:42:24;12.90;;;7.70;;
2338;SDS011;1180;51.438;6.978;2023-11-21T00:44:50;7.33;;;5.90;;
2338;SDS011;1180;51.438;6.978;2023-11-21T00:47:16;12.37;;;6.70;;
2338;SDS011;1180;51.438;6.978;2023-11-21T00:49:42;11.70;;;7.50;;
2338;SDS011;1180;51.438;6.978;2023-11-21T00:52:09;13.63;;;6.80;;
2338;SDS011;1180;51.438;6.978;2023-11-21T00:54:34;9.30;;;6.70;;
2338;SDS011;1180;51.438;6.978;2023-11-21T00:57:01;9.00;;;6.60;;
2338;SDS011;1180;51.438;6.978;2023-11-21T00:59:26;9.77;;;7.00;;
2338;SDS011;1180;51.438;6.978;2023-11-21T01:01:52;15.63;;;8.40;;
2338;SDS011;1180;51.438;6.978;2023-11-21T01:04:19;12.60;;;7.57;;
2338;SDS011;1180;51.438;6.978;2023-11-21T01:06:45;13.43;;;8.17;;
2338;SDS011;1180;51.438;6.978;2023-11-21T01:09:11;9.43;;;6.10;;
2338;SDS011;1180;51.438;6.978;2023-11-21T01:11:37;10.20;;;6.60;;
2338;SDS011;1180;51.438;6.978;2023-11-21T01:14:04;12.80;;;6.53;;
2338;SDS011;1180;51.438;6.978;2023-11-21T01:16:30;12.40;;;7.33;;
2338;SDS011;1180;51.438;6.978;2023-11-21T01:18:58;9.27;;;6.13;;
2338;SDS011;1180;51.438;6.978;2023-11-21T01:21:25;11.70;;;7.40;;
2338;SDS011;1180;51.438;6.978;2023-11-21T01:23:51;12.40;;;7.83;;
2338;SDS011;1180;51.438;6.978;2023-11-21T01:26:16;11.70;;;7.27;;
2338;SDS011;1180;51.438;6.978;2023-11-21T01:28:42;10.00;;;6.57;;
2338;SDS011;1180;51.438;6.978;2023-11-21T01:31:08;7.70;;;5.90;;
2338;SDS011;1180;51.438;6.978;2023-11-21T01:33:34;12.40;;;7.33;;
2338;SDS011;1180;51.438;6.978;2023-11-21T01:36:01;12.40;;;6.33;;
2338;SDS011;1180;51.438;6.978;2023-11-21T01:38:26;12.53;;;6.60;;
2338;SDS011;1180;51.438;6.978;2023-11-21T01:40:52;10.00;;;6.57;;
2338;SDS011;1180;51.438;6.978;2023-11-21T01:43:18;9.23;;;6.50;;
2338;SDS011;1180;51.438;6.978;2023-11-21T01:45:44;9.20;;;7.60;;
2338;SDS011;1180;51.438;6.978;2023-11-21T01:48:12;12.10;;;6.93;;
2338;SDS011;1180;51.438;6.978;2023-11-21T01:50:39;12.37;;;6.40;;
2338;SDS011;1180;51.438;6.978;2023-11-21T01:53:05;9.33;;;6.80;;
2338;SDS011;1180;51.438;6.978;2023-11-21T01:55:31;9.90;;;6.50;;
2338;SDS011;1180;51.438;6.978;2023-11-21T01:57:59;8.43;;;5.80;;
2338;SDS011;1180;51.438;6.978;2023-11-21T02:00:25;9.27;;;6.63;;
2338;SDS011;1180;51.438;6.978;2023-11-21T02:02:53;12.43;;;7.03;;
2338;SDS011;1180;51.438;6.978;2023-11-21T02:05:19;11.90;;;6.43;;
2338;SDS011;1180;51.438;6.978;2023-11-21T02:07:46;8.00;;;6.17;;
2338;SDS011;1180;51.438;6.978;2023-11-21T02:10:17;13.90;;;6.60;;
2338;SDS011;1180;51.438;6.978;2023-11-21T02:12:47;10.83;;;7.00;;
2338;SDS011;1180;51.438;6.978;2023-11-21T02:15:17;8.80;;;6.73;;
2338;SDS011;1180;51.438;6.978;2023-11-21T02:17:47;11.60;;;6.90;;
2338;SDS011;1180;51.438;6.978;2023-11-21T02:20:16;12.00;;;6.93;;
2338;SDS011;1180;51.438;6.978;2023-11-21T02:22:50;13.13;;;7.00;;
2338;SDS011;1180;51.438;6.978;2023-11-21T02:25:37;12.87;;;6.80;;
2338;SDS011;1180;51.438;6.978;2023-11-21T02:28:03;12.10;;;6.53;;
2338;SDS011;1180;51.438;6.978;2023-11-21T02:30:29;9.83;;;7.13;;
2338;SDS011;1180;51.438;6.978;2023-11-21T02:32:58;12.53;;;7.40;;
2338;SDS011;1180;51.438;6.978;2023-11-21T02:35:24;12.93;;;7.97;;
2338;SDS011;1180;51.438;6.978;2023-11-21T02:37:51;12.60;;;7.93;;
2338;SDS011;1180;51.438;6.978;2023-11-21T02:40:17;12.67;;;8.87;;
2338;SDS011;1180;51.438;6.978;2023-11-21T02:42:43;14.77;;;9.40;;
2338;SDS011;1180;51.438;6.978;2023-11-21T02:45:09;12.90;;;8.63;;
2338;SDS011;1180;51.438;6.978;2023-11-21T02:47:37;15.63;;;8.70;;
2338;SDS011;1180;51.438;6.978;2023-11-21T02:50:04;18.03;;;8.83;;
2338;SDS011;1180;51.438;6.978;2023-11-21T02:52:31;12.00;;;8.67;;
2338;SDS011;1180;51.438;6.978;2023-11-21T02:54:58;14.47;;;8.90;;
2338;SDS011;1180;51.438;6.978;2023-11-21T02:57:24;11.50;;;9.00;;
2338;SDS011;1180;51.438;6.978;2023-11-21T02:59:50;10.83;;;8.30;;
2338;SDS011;1180;51.438;6.978;2023-11-21T03:02:16;19.30;;;10.87;;
2338;SDS011;1180;51.438;6.978;2023-11-21T03:04:42;13.97;;;9.07;;
2338;SDS011;1180;51.438;6.978;2023-11-21T03:07:08;12.80;;;8.40;;
2338;SDS011;1180;51.438;6.978;2023-11-21T03:09:35;12.90;;;8.80;;
2338;SDS011;1180;51.438;6.978;2023-11-21T03:12:00;9.90;;;7.33;;
2338;SDS011;1180;51.438;6.978;2023-11-21T03:14:27;14.83;;;8.30;;
2338;SDS011;1180;51.438;6.978;2023-11-21T03:16:52;10.50;;;8.40;;
2338;SDS011;1180;51.438;6.978;2023-11-21T03:19:18;12.93;;;7.53;;
2338;SDS011;1180;51.438;6.978;2023-11-21T03:21:44;11.80;;;7.97;;
2338;SDS011;1180;51.438;6.978;2023-11-21T03:24:10;14.07;;;7.50;;
2338;SDS011;1180;51.438;6.978;2023-11-21T03:26:36;11.67;;;7.27;;
2338;SDS011;1180;51.438;6.978;2023-11-21T03:29:03;14.20;;;9.70;;
2338;SDS011;1180;51.438;6.978;2023-11-21T03:31:30;14.07;;;7.73;;
2338;SDS011;1180;51.438;6.978;2023-11-21T03:33:56;11.40;;;7.67;;
2338;SDS011;1180;51.438;6.978;2023-11-21T03:36:21;11.60;;;7.80;;
2338;SDS011;1180;51.438;6.978;2023-11-21T03:38:47;9.70;;;7.17;;
2338;SDS011;1180;51.438;6.978;2023-11-21T03:41:15;10.77;;;7.60;;
2338;SDS011;1180;51.438;6.978;2023-11-21T03:43:41;8.40;;;6.20;;
2338;SDS011;1180;51.438;6.978;2023-11-21T03:46:06;10.90;;;6.87;;
2338;SDS011;1180;51.438;6.978;2023-11-21T03:48:32;15.57;;;6.93;;
2338;SDS011;1180;51.438;6.978;2023-11-21T03:50:58;11.43;;;5.90;;
2338;SDS011;1180;51.438;6.978;2023-11-21T03:53:24;11.80;;;7.67;;
2338;SDS011;1180;51.438;6.978;2023-11-21T03:55:50;12.60;;;7.17;;
2338;SDS011;1180;51.438;6.978;2023-11-21T03:58:16;10.80;;;7.90;;
2338;SDS011;1180;51.438;6.978;2023-11-21T04:00:41;9.10;;;6.57;;
2338;SDS011;1180;51.438;6.978;2023-11-21T04:03:07;13.57;;;7.43;;
2338;SDS011;1180;51.438;6.978;2023-11-21T04:05:33;9.00;;;6.77;;
2338;SDS011;1180;51.438;6.978;2023-11-21T04:07:59;14.23;;;7.27;;
2338;SDS011;1180;51.438;6.978;2023-11-21T04:10:25;11.23;;;7.30;;
2338;SDS011;1180;51.438;6.978;2023-11-21T04:12:50;10.20;;;7.83;;
2338;SDS011;1180;51.438;6.978;2023-11-21T04:15:16;16.00;;;7.43;;
2338;SDS011;1180;51.438;6.978;2023-11-21T04:17:42;14.43;;;8.17;;
2338;SDS011;1180;51.438;6.978;2023-11-21T04:20:08;10.00;;;8.53;;
2338;SDS011;1180;51.438;6.978;2023-11-21T04:22:41;17.40;;;8.87;;
2338;SDS011;1180;51.438;6.978;2023-11-21T04:25:09;13.70;;;9.10;;
2338;SDS011;1180;51.438;6.978;2023-11-21T04:27:36;14.57;;;8.80;;
2338;SDS011;1180;51.438;6.978;2023-11-21T04:30:02;17.90;;;9.70;;
2338;SDS011;1180;51.438;6.978;2023-11-21T04:32:28;13.17;;;10.13;;
2338;SDS011;1180;51.438;6.978;2023-11-21T04:34:54;12.80;;;8.97;;
2338;SDS011;1180;51.438;6.978;2023-11-21T04:37:20;17.13;;;9.00;;
2338;SDS011;1180;51.438;6.978;2023-11-21T04:39:46;16.13;;;10.23;;
2338;SDS011;1180;51.438;6.978;2023-11-21T04:42:12;14.33;;;8.83;;
2338;SDS011;1180;51.438;6.978;2023-11-21T04:44:38;15.57;;;8.97;;
2338;SDS011;1180;51.438;6.978;2023-11-21T04:47:06;15.97;;;9.03;;
2338;SDS011;1180;51.438;6.978;2023-11-21T04:49:32;11.00;;;8.90;;
2338;SDS011;1180;51.438;6.978;2023-11-21T04:51:59;13.90;;;8.33;;
2338;SDS011;1180;51.438;6.978;2023-11-21T04:54:24;11.83;;;7.80;;
2338;SDS011;1180;51.438;6.978;2023-11-21T04:56:50;15.33;;;9.90;;
2338;SDS011;1180;51.438;6.978;2023-11-21T04:59:16;17.90;;;9.60;;
2338;SDS011;1180;51.438;6.978;2023-11-21T05:01:42;19.53;;;10.70;;
2338;SDS011;1180;51.438;6.978;2023-11-21T05:04:08;16.97;;;10.57;;
2338;SDS011;1180;51.438;6.978;2023-11-21T05:06:34;16.90;;;10.03;;
2338;SDS011;1180;51.438;6.978;2023-11-21T05:09:00;17.23;;;10.40;;
2338;SDS011;1180;51.438;6.978;2023-11-21T05:11:26;18.00;;;10.27;;
2338;SDS011;1180;51.438;6.978;2023-11-21T05:13:52;21.53;;;12.13;;
2338;SDS011;1180;51.438;6.978;2023-11-21T05:16:19;14.67;;;10.30;;
2338;SDS011;1180;51.438;6.978;2023-11-21T05:18:45;17.67;;;12.17;;
2338;SDS011;1180;51.438;6.978;2023-11-21T05:21:12;17.80;;;10.93;;
2338;SDS011;1180;51.438;6.978;2023-11-21T05:23:37;15.63;;;10.43;;
2338;SDS011;1180;51.438;6.978;2023-11-21T05:26:03;15.70;;;10.63;;
2338;SDS011;1180;51.438;6.978;2023-11-21T05:28:29;16.40;;;10.53;;
2338;SDS011;1180;51.438;6.978;2023-11-21T05:30:54;17.10;;;10.83;;
2338;SDS011;1180;51.438;6.978;2023-11-21T05:33:20;20.03;;;11.90;;
2338;SDS011;1180;51.438;6.978;2023-11-21T05:35:46;17.37;;;11.30;;
2338;SDS011;1180;51.438;6.978;2023-11-21T05:38:14;20.87;;;12.83;;
2338;SDS011;1180;51.438;6.978;2023-11-21T05:40:39;17.47;;;11.57;;
2338;SDS011;1180;51.438;6.978;2023-11-21T05:43:06;15.87;;;11.87;;
2338;SDS011;1180;51.438;6.978;2023-11-21T05:45:32;16.63;;;12.63;;
2338;SDS011;1180;51.438;6.978;2023-11-21T05:47:58;23.53;;;14.20;;
2338;SDS011;1180;51.438;6.978;2023-11-21T05:50:24;26.10;;;13.90;;
2338;SDS011;1180;51.438;6.978;2023-11-21T05:52:49;21.60;;;12.90;;
2338;SDS011;1180;51.438;6.978;2023-11-21T05:55:15;19.90;;;12.83;;
2338;SDS011;1180;51.438;6.978;2023-11-21T05:57:42;18.97;;;11.93;;
2338;SDS011;1180;51.438;6.978;2023-11-21T06:00:12;23.70;;;13.90;;
2338;SDS011;1180;51.438;6.978;2023-11-21T06:02:52;19.17;;;13.23;;
2338;SDS011;1180;51.438;6.978;2023-11-21T06:05:19;19.40;;;13.23;;
2338;SDS011;1180;51.438;6.978;2023-11-21T06:07:48;26.73;;;13.70;;
2338;SDS011;1180;51.438;6.978;2023-11-21T06:10:14;22.83;;;14.67;;
2338;SDS011;1180;51.438;6.978;2023-11-21T06:12:43;18.90;;;13.10;;
2338;SDS011;1180;51.438;6.978;2023-11-21T06:15:09;20.80;;;13.93;;
2338;SDS011;1180;51.438;6.978;2023-11-21T06:17:38;18.07;;;12.37;;
2338;SDS011;1180;51.438;6.978;2023-11-21T06:20:05;18.73;;;12.73;;
2338;SDS011;1180;51.438;6.978;2023-11-21T06:22:38;21.13;;;13.30;;
2338;SDS011;1180;51.438;6.978;2023-11-21T06:25:05;19.10;;;13.20;;
2338;SDS011;1180;51.438;6.978;2023-11-21T06:27:34;21.67;;;14.57;;
2338;SDS011;1180;51.438;6.978;2023-11-21T06:30:04;19.70;;;13.30;;
2338;SDS011;1180;51.438;6.978;2023-11-21T06:32:31;20.83;;;13.50;;
2338;SDS011;1180;51.438;6.978;2023-11-21T06:34:57;21.40;;;12.57;;
2338;SDS011;1180;51.438;6.978;2023-11-21T06:37:27;25.03;;;13.23;;
2338;SDS011;1180;51.438;6.978;2023-11-21T06:39:55;20.30;;;14.23;;
2338;SDS011;1180;51.438;6.978;2023-11-21T06:42:21;26.47;;;13.50;;
2338;SDS011;1180;51.438;6.978;2023-11-21T06:44:49;23.83;;;15.80;;
2338;SDS011;1180;51.438;6.978;2023-11-21T06:47:17;25.40;;;14.57;;
2338;SDS011;1180;51.438;6.978;2023-11-21T06:49:45;21.93;;;15.60;;
2338;SDS011;1180;51.438;6.978;2023-11-21T06:52:13;22.73;;;14.33;;
2338;SDS011;1180;51.438;6.978;2023-11-21T06:54:39;24.83;;;15.27;;
2338;SDS011;1180;51.438;6.978;2023-11-21T06:57:05;26.40;;;14.83;;
2338;SDS011;1180;51.438;6.978;2023-11-21T06:59:30;23.50;;;14.83;;
2338;SDS011;1180;51.438;6.978;2023-11-21T07:01:56;24.03;;;15.00;;
2338;SDS011;1180;51.438;6.978;2023-11-21T07:04:22;25.27;;;15.60;;
2338;SDS011;1180;51.438;6.978;2023-11-21T07:06:49;22.60;;;14.70;;
2338;SDS011;1180;51.438;6.978;2023-11-21T07:09:15;22.53;;;15.13;;
2338;SDS011;1180;51.438;6.978;2023-11-21T07:11:41;28.93;;;15.60;;
2338;SDS011;1180;51.438;6.978;2023-11-21T07:14:07;21.30;;;13.93;;
2338;SDS011;1180;51.438;6.978;2023-11-21T07:16:37;29.43;;;17.60;;
2338;SDS011;1180;51.438;6.978;2023-11-21T07:19:06;31.30;;;16.80;;
2338;SDS011;1180;51.438;6.978;2023-11-21T07:21:32;27.13;;;15.90;;
2338;SDS011;1180;51.438;6.978;2023-11-21T07:24:02;27.00;;;15.53;;
2338;SDS011;1180;51.438;6.978;2023-11-21T07:26:28;28.90;;;17.10;;
2338;SDS011;1180;51.438;6.978;2023-11-21T07:28:55;31.87;;;18.90;;
2338;SDS011;1180;51.438;6.978;2023-11-21T07:31:21;27.30;;;17.23;;
2338;SDS011;1180;51.438;6.978;2023-11-21T07:33:47;31.17;;;18.00;;
2338;SDS011;1180;51.438;6.978;2023-11-21T07:36:14;34.10;;;19.20;;
2338;SDS011;1180;51.438;6.978;2023-11-21T07:38:43;32.40;;;18.73;;
2338;SDS011;1180;51.438;6.978;2023-11-21T07:41:09;33.90;;;20.00;;
2338;SDS011;1180;51.438;6.978;2023-11-21T07:43:36;35.67;;;19.67;;
2338;SDS011;1180;51.438;6.978;2023-11-21T07:46:02;33.70;;;18.20;;
2338;SDS011;1180;51.438;6.978;2023-11-21T07:48:32;30.60;;;18.00;;
2338;SDS011;1180;51.438;6.978;2023-11-21T07:51:02;29.60;;;18.00;;
2338;SDS011;1180;51.438;6.978;2023-11-21T07:53:32;28.07;;;17.50;;
2338;SDS011;1180;51.438;6.978;2023-11-21T07:56:03;33.17;;;19.83;;
2338;SDS011;1180;51.438;6.978;2023-11-21T07:58:30;33.57;;;19.00;;
2338;SDS011;1180;51.438;6.978;2023-11-21T08:01:00;29.33;;;18.60;;
2338;SDS011;1180;51.438;6.978;2023-11-21T08:03:26;29.80;;;16.13;;
2338;SDS011;1180;51.438;6.978;2023-11-21T08:05:52;23.67;;;16.93;;
2338;SDS011;1180;51.438;6.978;2023-11-21T08:08:18;32.47;;;18.10;;
2338;SDS011;1180;51.438;6.978;2023-11-21T08:10:44;27.53;;;17.60;;
2338;SDS011;1180;51.438;6.978;2023-11-21T08:13:13;31.70;;;19.13;;
2338;SDS011;1180;51.438;6.978;2023-11-21T08:15:41;27.83;;;17.93;;
2338;SDS011;1180;51.438;6.978;2023-11-21T08:18:11;34.17;;;19.43;;
2338;SDS011;1180;51.438;6.978;2023-11-21T08:20:37;35.53;;;20.87;;
2338;SDS011;1180;51.438;6.978;2023-11-21T08:23:05;31.30;;;17.90;;
2338;SDS011;1180;51.438;6.978;2023-11-21T08:25:31;38.70;;;20.23;;
2338;SDS011;1180;51.438;6.978;2023-11-21T08:27:58;33.47;;;20.13;;
2338;SDS011;1180;51.438;6.978;2023-11-21T08:30:24;38.90;;;21.80;;
2338;SDS011;1180;51.438;6.978;2023-11-21T08:32:50;49.10;;;24.90;;
2338;SDS011;1180;51.438;6.978;2023-11-21T08:35:18;44.07;;;27.17;;
2338;SDS011;1180;51.438;6.978;2023-11-21T08:37:44;47.87;;;27.30;;
2338;SDS011;1180;51.438;6.978;2023-11-21T08:40:12;45.53;;;24.50;;
2338;SDS011;1180;51.438;6.978;2023-11-21T08:42:41;45.10;;;25.03;;
2338;SDS011;1180;51.438;6.978;2023-11-21T08:45:08;43.77;;;25.67;;
2338;SDS011;1180;51.438;6.978;2023-11-21T08:47:34;59.53;;;28.53;;
2338;SDS011;1180;51.438;6.978;2023-11-21T08:50:01;57.03;;;28.00;;
2338;SDS011;1180;51.438;6.978;2023-11-21T08:52:28;63.03;;;32.30;;
2338;SDS011;1180;51.438;6.978;2023-11-21T08:54:53;68.40;;;30.63;;
2338;SDS011;1180;51.438;6.978;2023-11-21T08:57:24;62.10;;;32.47;;
2338;SDS011;1180;51.438;6.978;2023-11-21T08:59:50;70.97;;;34.27;;
2338;SDS011;1180;51.438;6.978;2023-11-21T09:02:20;70.40;;;31.43;;
2338;SDS011;1180;51.438;6.978;2023-11-21T09:04:48;66.93;;;32.53;;
2338;SDS011;1180;51.438;6.978;2023-11-21T09:07:14;71.67;;;34.60;;
2338;SDS011;1180;51.438;6.978;2023-11-21T09:09:40;60.97;;;31.73;;
2338;SDS011;1180;51.438;6.978;2023-11-21T09:12:06;76.93;;;34.77;;
2338;SDS011;1180;51.438;6.978;2023-11-21T09:14:31;57.67;;;32.70;;
2338;SDS011;1180;51.438;6.978;2023-11-21T09:16:57;69.43;;;32.60;;
2338;SDS011;1180;51.438;6.978;2023-11-21T09:19:23;65.17;;;33.03;;
2338;SDS011;1180;51.438;6.978;2023-11-21T09:21:49;61.93;;;33.10;;
2338;SDS011;1180;51.438;6.978;2023-11-21T09:24:15;77.43;;;36.43;;
2338;SDS011;1180;51.438;6.978;2023-11-21T09:26:41;59.23;;;31.60;;
2338;SDS011;1180;51.438;6.978;2023-11-21T09:29:07;76.47;;;35.67;;
2338;SDS011;1180;51.438;6.978;2023-11-21T09:31:33;61.20;;;31.03;;
2338;SDS011;1180;51.438;6.978;2023-11-21T09:33:59;74.90;;;34.57;;
2338;SDS011;1180;51.438;6.978;2023-11-21T09:36:24;61.43;;;30.10;;
2338;SDS011;1180;51.438;6.978;2023-11-21T09:38:52;73.87;;;33.93;;
2338;SDS011;1180;51.438;6.978;2023-11-21T09:41:26;80.40;;;33.60;;
2338;SDS011;1180;51.438;6.978;2023-11-21T09:44:00;70.27;;;32.33;;
2338;SDS011;1180;51.438;6.978;2023-11-21T09:46:29;75.07;;;33.50;;
2338;SDS011;1180;51.438;6.978;2023-11-21T09:48:55;59.50;;;34.20;;
2338;SDS011;1180;51.438;6.978;2023-11-21T09:51:26;64.17;;;31.93;;
2338;SDS011;1180;51.438;6.978;2023-11-21T09:53:58;62.30;;;30.17;;
2338;SDS011;1180;51.438;6.978;2023-11-21T09:56:27;64.30;;;34.27;;
2338;SDS011;1180;51.438;6.978;2023-11-21T09:58:55;63.67;;;32.90;;
2338;SDS011;1180;51.438;6.978;2023-11-21T10:01:22;61.70;;;30.17;;
2338;SDS011;1180;51.438;6.978;2023-11-21T10:03:50;61.43;;;30.03;;
2338;SDS011;1180;51.438;6.978;2023-11-21T10:06:15;67.53;;;32.67;;
2338;SDS011;1180;51.438;6.978;2023-11-21T10:08:43;61.23;;;31.43;;
2338;SDS011;1180;51.438;6.978;2023-11-21T10:11:09;62.37;;;28.97;;
2338;SDS011;1180;51.438;6.978;2023-11-21T10:13:37;63.70;;;29.73;;
2338;SDS011;1180;51.438;6.978;2023-11-21T10:16:05;58.73;;;30.37;;
2338;SDS011;1180;51.438;6.978;2023-11-21T10:18:37;53.47;;;24.70;;
2338;SDS011;1180;51.438;6.978;2023-11-21T10:21:05;51.53;;;24.97;;
2338;SDS011;1180;51.438;6.978;2023-11-21T10:23:31;52.90;;;26.80;;
2338;SDS011;1180;51.438;6.978;2023-11-21T10:25:57;65.03;;;27.87;;
2338;SDS011;1180;51.438;6.978;2023-11-21T10:28:24;56.37;;;27.23;;
2338;SDS011;1180;51.438;6.978;2023-11-21T10:30:49;61.63;;;29.23;;
2338;SDS011;1180;51.438;6.978;2023-11-21T10:33:15;66.70;;;28.90;;
2338;SDS011;1180;51.438;6.978;2023-11-21T10:38:07;59.40;;;31.30;;
2338;SDS011;1180;51.438;6.978;2023-11-21T10:40:38;54.93;;;27.97;;
2338;SDS011;1180;51.438;6.978;2023-11-21T10:43:07;50.73;;;26.33;;
2338;SDS011;1180;51.438;6.978;2023-11-21T10:45:34;54.50;;;26.27;;
2338;SDS011;1180;51.438;6.978;2023-11-21T10:48:04;60.10;;;27.97;;
2338;SDS011;1180;51.438;6.978;2023-11-21T10:50:33;56.93;;;27.40;;
2338;SDS011;1180;51.438;6.978;2023-11-21T10:53:02;54.40;;;27.03;;
2338;SDS011;1180;51.438;6.978;2023-11-21T10:55:30;51.07;;;25.60;;
2338;SDS011;1180;51.438;6.978;2023-11-21T10:58:06;46.00;;;24.27;;
2338;SDS011;1180;51.438;6.978;2023-11-21T11:00:32;60.73;;;26.70;;
2338;SDS011;1180;51.438;6.978;2023-11-21T11:02:59;65.30;;;28.83;;
2338;SDS011;1180;51.438;6.978;2023-11-21T11:05:27;71.27;;;28.90;;
2338;SDS011;1180;51.438;6.978;2023-11-21T11:08:04;77.53;;;29.93;;
2338;SDS011;1180;51.438;6.978;2023-11-21T11:10:33;66.00;;;28.40;;
2338;SDS011;1180;51.438;6.978;2023-11-21T11:13:00;61.50;;;27.60;;
2338;SDS011;1180;51.438;6.978;2023-11-21T11:15:27;72.63;;;32.23;;
2338;SDS011;1180;51.438;6.978;2023-11-21T11:17:53;65.97;;;29.07;;
2338;SDS011;1180;51.438;6.978;2023-11-21T11:20:23;69.67;;;29.07;;
2338;SDS011;1180;51.438;6.978;2023-11-21T11:28:46;46.70;;;23.23;;
2338;SDS011;1180;51.438;6.978;2023-11-21T11:37:15;45.37;;;22.13;;
2338;SDS011;1180;51.438;6.978;2023-11-21T11:39:41;40.83;;;19.63;;
2338;SDS011;1180;51.438;6.978;2023-11-21T11:42:11;53.87;;;21.80;;
2338;SDS011;1180;51.438;6.978;2023-11-21T11:47:17;37.73;;;18.77;;
2338;SDS011;1180;51.438;6.978;2023-11-21T11:50:08;31.37;;;17.77;;
2338;SDS011;1180;51.438;6.978;2023-11-21T11:52:42;39.73;;;20.87;;
2338;SDS011;1180;51.438;6.978;2023-11-21T11:55:10;38.10;;;19.87;;
2338;SDS011;1180;51.438;6.978;2023-11-21T11:57:38;38.30;;;18.83;;
2338;SDS011;1180;51.438;6.978;2023-11-21T12:02:39;40.07;;;19.77;;
2338;SDS011;1180;51.438;6.978;2023-11-21T12:05:08;29.93;;;18.17;;
2338;SDS011;1180;51.438;6.978;2023-11-21T12:07:44;38.30;;;21.40;;
2338;SDS011;1180;51.438;6.978;2023-11-21T12:10:11;33.63;;;18.47;;
2338;SDS011;1180;51.438;6.978;2023-11-21T12:12:42;32.97;;;18.73;;
2338;SDS011;1180;51.438;6.978;2023-11-21T12:15:09;27.87;;;17.10;;
2338;SDS011;1180;51.438;6.978;2023-11-21T12:17:34;35.10;;;19.07;;
2338;SDS011;1180;51.438;6.978;2023-11-21T12:20:03;31.70;;;17.60;;
2338;SDS011;1180;51.438;6.978;2023-11-21T12:22:29;38.77;;;18.87;;
2338;SDS011;1180;51.438;6.978;2023-11-21T12:24:55;33.20;;;17.40;;
2338;SDS011;1180;51.438;6.978;2023-11-21T12:27:21;35.73;;;20.00;;
2338;SDS011;1180;51.438;6.978;2023-11-21T12:29:47;29.63;;;19.60;;
2338;SDS011;1180;51.438;6.978;2023-11-21T12:32:12;37.90;;;20.60;;
2338;SDS011;1180;51.438;6.978;2023-11-21T12:34:40;41.37;;;20.83;;
2338;SDS011;1180;51.438;6.978;2023-11-21T12:37:06;33.77;;;22.03;;
2338;SDS011;1180;51.438;6.978;2023-11-21T12:39:31;35.50;;;19.30;;
2338;SDS011;1180;51.438;6.978;2023-11-21T12:41:57;35.93;;;23.37;;
2338;SDS011;1180;51.438;6.978;2023-11-21T12:44:23;45.50;;;23.73;;
2338;SDS011;1180;51.438;6.978;2023-11-21T12:46:49;48.87;;;26.60;;
2338;SDS011;1180;51.438;6.978;2023-11-21T12:49:15;45.90;;;25.10;;
2338;SDS011;1180;51.438;6.978;2023-11-21T12:51:44;54.80;;;29.40;;
2338;SDS011;1180;51.438;6.978;2023-11-21T12:54:11;55.13;;;30.60;;
2338;SDS011;1180;51.438;6.978;2023-11-21T12:56:40;70.70;;;31.43;;
2338;SDS011;1180;51.438;6.978;2023-11-21T12:59:06;51.70;;;30.13;;
2338;SDS011;1180;51.438;6.978;2023-11-21T13:01:31;50.97;;;29.40;;
2338;SDS011;1180;51.438;6.978;2023-11-21T13:03:57;57.20;;;30.63;;
2338;SDS011;1180;51.438;6.978;2023-11-21T13:06:27;53.67;;;33.00;;
2338;SDS011;1180;51.438;6.978;2023-11-21T13:08:54;59.37;;;32.30;;
2338;SDS011;1180;51.438;6.978;2023-11-21T13:11:22;57.83;;;31.20;;
2338;SDS011;1180;51.438;6.978;2023-11-21T13:13:47;53.47;;;31.47;;
2338;SDS011;1180;51.438;6.978;2023-11-21T13:16:18;42.43;;;27.00;;
2338;SDS011;1180;51.438;6.978;2023-11-21T13:18:45;46.40;;;27.97;;
2338;SDS011;1180;51.438;6.978;2023-11-21T13:21:11;42.10;;;26.97;;
2338;SDS011;1180;51.438;6.978;2023-11-21T13:23:40;40.97;;;26.77;;
2338;SDS011;1180;51.438;6.978;2023-11-21T13:26:07;45.80;;;27.63;;
2338;SDS011;1180;51.438;6.978;2023-11-21T13:28:34;47.90;;;27.90;;
2338;SDS011;1180;51.438;6.978;2023-11-21T13:31:02;48.37;;;28.70;;
2338;SDS011;1180;51.438;6.978;2023-11-21T13:33:38;38.50;;;25.07;;
2338;SDS011;1180;51.438;6.978;2023-11-21T13:36:05;31.63;;;21.30;;
2338;SDS011;1180;51.438;6.978;2023-11-21T13:38:32;37.37;;;22.43;;
2338;SDS011;1180;51.438;6.978;2023-11-21T13:41:00;30.90;;;19.60;;
2338;SDS011;1180;51.438;6.978;2023-11-21T13:43:26;31.20;;;21.47;;
2338;SDS011;1180;51.438;6.978;2023-11-21T13:45:53;27.90;;;19.73;;
2338;SDS011;1180;51.438;6.978;2023-11-21T13:48:26;26.87;;;17.80;;
2338;SDS011;1180;51.438;6.978;2023-11-21T13:50:59;21.77;;;16.07;;
2338;SDS011;1180;51.438;6.978;2023-11-21T13:53:33;22.97;;;16.17;;
2338;SDS011;1180;51.438;6.978;2023-11-21T13:56:01;22.27;;;17.00;;
2338;SDS011;1180;51.438;6.978;2023-11-21T13:58:26;22.10;;;15.97;;
2338;SDS011;1180;51.438;6.978;2023-11-21T14:01:12;24.27;;;16.37;;
2338;SDS011;1180;51.438;6.978;2023-11-21T14:04:02;25.53;;;17.80;;
2338;SDS011;1180;51.438;6.978;2023-11-21T14:06:48;20.90;;;14.23;;
2338;SDS011;1180;51.438;6.978;2023-11-21T14:09:15;25.50;;;17.20;;
2338;SDS011;1180;51.438;6.978;2023-11-21T14:11:51;24.17;;;15.97;;
2338;SDS011;1180;51.438;6.978;2023-11-21T14:14:19;30.00;;;19.30;;
2338;SDS011;1180;51.438;6.978;2023-11-21T14:16:46;21.30;;;16.07;;
2338;SDS011;1180;51.438;6.978;2023-11-21T14:19:12;21.80;;;15.40;;
2338;SDS011;1180;51.438;6.978;2023-11-21T14:21:41;26.73;;;15.10;;
2338;SDS011;1180;51.438;6.978;2023-11-21T14:24:10;17.67;;;12.53;;
2338;SDS011;1180;51.438;6.978;2023-11-21T14:26:39;20.63;;;14.33;;
2338;SDS011;1180;51.438;6.978;2023-11-21T14:29:05;20.97;;;12.10;;
2338;SDS011;1180;51.438;6.978;2023-11-21T14:31:32;18.40;;;12.60;;
2338;SDS011;1180;51.438;6.978;2023-11-21T14:33:58;16.77;;;12.43;;
2338;SDS011;1180;51.438;6.978;2023-11-21T14:36:25;27.43;;;15.30;;
2338;SDS011;1180;51.438;6.978;2023-11-21T14:38:51;15.30;;;10.87;;
2338;SDS011;1180;51.438;6.978;2023-11-21T14:41:16;15.90;;;10.50;;
2338;SDS011;1180;51.438;6.978;2023-11-21T14:43:42;20.97;;;10.70;;
2338;SDS011;1180;51.438;6.978;2023-11-21T14:46:08;14.93;;;10.60;;
2338;SDS011;1180;51.438;6.978;2023-11-21T14:48:35;14.63;;;10.87;;
2338;SDS011;1180;51.438;6.978;2023-11-21T14:51:21;17.53;;;11.93;;
2338;SDS011;1180;51.438;6.978;2023-11-21T14:53:56;16.43;;;11.67;;
2338;SDS011;1180;51.438;6.978;2023-11-21T14:56:31;20.70;;;12.47;;
2338;SDS011;1180;51.438;6.978;2023-11-21T14:58:58;15.73;;;10.40;;
2338;SDS011;1180;51.438;6.978;2023-11-21T15:01:44;14.87;;;9.90;;
2338;SDS011;1180;51.438;6.978;2023-11-21T15:04:18;14.50;;;8.03;;
2338;SDS011;1180;51.438;6.978;2023-11-21T15:07:01;13.60;;;8.97;;
2338;SDS011;1180;51.438;6.978;2023-11-21T15:09:28;15.30;;;8.80;;
2338;SDS011;1180;51.438;6.978;2023-11-21T15:12:01;10.10;;;7.17;;
2338;SDS011;1180;51.438;6.978;2023-11-21T15:14:43;11.13;;;8.57;;